Terminal Aerodrome Forecast
Issued by NWS

Home | Current Version | Previous Version | Text Only | Print | Product List | Glossary On
Versions: 1 2 3 4 5 6 7 8 9 10 11 12 13 14 15 16 17
000
FTUS45 KFGZ 211136
TAFGCN
TAF
KGCN 211136Z 2112/2212 VRB03KT P6SM VCSH BKN070
     FM211600 25006KT P6SM SCT060 BKN100
      TEMPO 2120/2124 VRB10G20KT 5SM TSRA BKN060CB
     FM220130 VRB05KT P6SM SCT060 OVC080=

USA.gov is the U.S. government's official web portal to all federal, state and local government web resources and services.